NORTHERN QUEENS  -  Air Quality Alert Air Quality Alert        SOUTHERN QUEENS  -  Air Quality Alert Air Quality Alert      

Active alerts

Northern Queens
  Details for Northern Queens Air Quality Alert
Southern Queens
  Details for Southern Queens Air Quality Alert


WXM80 ListenWXM80 Stop

You find our weather info also at:

UK Metoffice

WeatherCloud

Weather Underground

Northeastern Weather Network

AWEKAS

Citizen Weather Observer Program (CWOP)

HAMweather, WeatherForYou, PWS Weather


Weather Underground History page Text

Daily Summary for November 24, 2017 Units:  English    Metric   Both
« Previous Day
Next Day »
Daily Weekly Monthly Yearly Custom
  High: Low: Average:
Temperature: 49.0 °F 30.7 °F 39.4 °F
Dew Point: 36.7 °F 26.0 °F 31.1 °F
Humidity: 89 % 54 % 73 %
Wind Speed: 4.1 mph 0.0 mph 1 mph
Wind Gust: 8.1 mph - -
Wind:- - WSW
Pressure: 30.08 in 29.95 in -
Precipitation: 0.01 in    
Historical Graphs
 
 
Tabular Data for November 24, 2017
Time Temperature Dew Point Pressure Wind Wind Speed Wind Gust Humidity Rainfall Rate (Hourly)
00:02 31.1 °F 26.0 °F 30.06 in WSW 0.3 mph 1.2 mph 81 % 0.00 in
00:07 31.0 °F 26.1 °F 30.06 in WSW 0.3 mph 2.3 mph 82 % 0.00 in
00:12 31.0 °F 26.1 °F 30.06 in WSW 0.8 mph 1.2 mph 82 % 0.00 in
00:17 31.0 °F 26.1 °F 30.06 in Calm     82 % 0.00 in
00:22 31.0 °F 26.1 °F 30.05 in WSW 0.9 mph 2.3 mph 82 % 0.00 in
00:27 30.9 °F 26.1 °F 30.05 in WSW 0.4 mph 1.2 mph 82 % 0.00 in
00:32 30.9 °F 26.3 °F 30.05 in WSW 0.4 mph 2.3 mph 83 % 0.00 in
00:42 30.9 °F 26.3 °F 30.05 in WSW 1.1 mph 2.3 mph 83 % 0.00 in
00:47 30.9 °F 26.6 °F 30.05 in WSW 0.2 mph 1.2 mph 84 % 0.00 in
00:52 30.9 °F 26.6 °F 30.05 in Calm     84 % 0.00 in
00:57 30.9 °F 26.6 °F 30.05 in Calm     84 % 0.00 in
01:02 30.9 °F 26.6 °F 30.05 in Calm   1.2 mph 84 % 0.00 in
01:12 30.9 °F 26.6 °F 30.04 in Calm     84 % 0.00 in
01:17 30.9 °F 26.6 °F 30.04 in WSW 0.6 mph 2.0 mph 84 % 0.00 in
01:23 30.9 °F 26.6 °F 30.04 in WSW 0.1 mph 1.2 mph 84 % 0.00 in
01:33 30.9 °F 26.9 °F 30.05 in Calm     85 % 0.00 in
01:38 30.9 °F 26.9 °F 30.05 in WSW 0.3 mph 1.0 mph 85 % 0.00 in
01:43 30.9 °F 26.9 °F 30.05 in Calm     85 % 0.00 in
01:48 30.9 °F 26.9 °F 30.05 in WSW 1.2 mph 2.3 mph 85 % 0.00 in
01:58 31.0 °F 26.7 °F 30.05 in WSW 1.0 mph 2.3 mph 84 % 0.00 in
02:03 31.0 °F 26.7 °F 30.05 in Calm     84 % 0.00 in
02:08 31.1 °F 26.8 °F 30.05 in WSW 0.5 mph 1.2 mph 84 % 0.00 in
02:18 31.2 °F 26.9 °F 30.05 in Calm   1.2 mph 84 % 0.00 in
02:23 31.2 °F 26.9 °F 30.05 in Calm     84 % 0.00 in
02:38 31.3 °F 27.0 °F 30.05 in Calm     84 % 0.00 in
02:43 31.3 °F 27.0 °F 30.05 in WSW 0.3 mph 1.2 mph 84 % 0.00 in
02:53 31.3 °F 26.7 °F 30.05 in WSW 0.3 mph 1.2 mph 83 % 0.00 in
02:58 31.3 °F 26.7 °F 30.05 in WSW 0.8 mph 2.3 mph 83 % 0.00 in
03:03 31.3 °F 26.7 °F 30.05 in WSW 0.1 mph 1.2 mph 83 % 0.00 in
03:08 31.2 °F 26.6 °F 30.05 in WSW 2.0 mph 3.5 mph 83 % 0.00 in
03:13 31.1 °F 26.5 °F 30.05 in WSW 0.6 mph 2.3 mph 83 % 0.00 in
03:23 31.0 °F 26.7 °F 30.05 in WSW 0.2 mph 2.3 mph 84 % 0.00 in
03:33 31.0 °F 27.0 °F 30.05 in Calm     85 % 0.00 in
03:38 31.0 °F 27.0 °F 30.05 in Calm   1.0 mph 85 % 0.00 in
03:54 30.9 °F 26.9 °F 30.05 in Calm   1.2 mph 85 % 0.00 in
03:59 30.8 °F 26.8 °F 30.04 in WSW 0.1 mph 2.3 mph 85 % 0.00 in
04:04 30.8 °F 26.8 °F 30.04 in WSW 1.3 mph 3.5 mph 85 % 0.00 in
04:09 30.8 °F 26.8 °F 30.05 in WSW 1.2 mph 3.5 mph 85 % 0.00 in
04:14 30.9 °F 27.2 °F 30.05 in WSW 1.7 mph 3.5 mph 86 % 0.00 in
04:19 31.0 °F 27.3 °F 30.04 in WSW 1.7 mph 2.3 mph 86 % 0.00 in
04:24 31.1 °F 27.4 °F 30.04 in WSW 1.4 mph 3.5 mph 86 % 0.00 in
04:29 31.1 °F 27.4 °F 30.04 in WSW 1.1 mph 2.3 mph 86 % 0.00 in
04:34 31.1 °F 27.4 °F 30.04 in WSW 0.9 mph 2.3 mph 86 % 0.00 in
04:39 31.2 °F 27.5 °F 30.04 in WSW 1.4 mph 2.3 mph 86 % 0.00 in
04:49 31.2 °F 27.5 °F 30.04 in WSW 1.0 mph 2.3 mph 86 % 0.00 in
04:54 31.2 °F 27.5 °F 30.05 in WSW 1.4 mph 2.3 mph 86 % 0.00 in
04:59 31.3 °F 27.6 °F 30.05 in WSW 1.4 mph 3.5 mph 86 % 0.00 in
05:04 31.4 °F 27.7 °F 30.05 in WSW 0.5 mph 3.5 mph 86 % 0.00 in
05:09 31.5 °F 27.5 °F 30.05 in WSW 1.1 mph 3.0 mph 85 % 0.00 in
05:14 31.5 °F 27.5 °F 30.06 in WSW 0.5 mph 2.3 mph 85 % 0.00 in
05:19 31.6 °F 27.6 °F 30.06 in WSW 0.5 mph 2.3 mph 85 % 0.00 in
05:24 31.6 °F 27.6 °F 30.06 in WSW 1.4 mph 2.3 mph 85 % 0.00 in
05:29 31.6 °F 27.6 °F 30.06 in WSW 0.5 mph 2.0 mph 85 % 0.00 in
05:34 31.6 °F 27.6 °F 30.06 in WSW 2.0 mph 3.0 mph 85 % 0.00 in
05:39 31.6 °F 27.6 °F 30.06 in WSW 1.5 mph 2.3 mph 85 % 0.00 in
05:44 31.5 °F 27.2 °F 30.05 in Calm     84 % 0.00 in
05:49 31.5 °F 27.2 °F 30.06 in Calm     84 % 0.00 in
05:55 31.4 °F 27.1 °F 30.06 in Calm   1.2 mph 84 % 0.00 in
06:00 31.3 °F 27.0 °F 30.06 in Calm     84 % 0.00 in
06:05 31.2 °F 26.9 °F 30.06 in Calm     84 % 0.00 in
06:10 31.1 °F 26.8 °F 30.06 in Calm     84 % 0.00 in
06:15 31.1 °F 26.8 °F 30.07 in Calm     84 % 0.00 in
06:20 31.0 °F 26.7 °F 30.07 in Calm     84 % 0.00 in
06:25 31.0 °F 26.7 °F 30.07 in Calm     84 % 0.00 in
06:30 31.0 °F 26.4 °F 30.07 in Calm     83 % 0.00 in
06:35 31.0 °F 26.4 °F 30.07 in Calm     83 % 0.00 in
06:40 31.0 °F 26.4 °F 30.07 in Calm     83 % 0.00 in
06:45 30.9 °F 26.3 °F 30.08 in Calm     83 % 0.00 in
06:50 30.9 °F 26.3 °F 30.07 in WSW 0.2 mph 1.0 mph 83 % 0.00 in
06:55 30.8 °F 26.2 °F 30.07 in Calm     83 % 0.00 in
07:01 30.8 °F 26.5 °F 30.08 in WSW 1.3 mph 2.3 mph 84 % 0.00 in
07:06 30.8 °F 26.5 °F 30.08 in WSW 0.2 mph 1.2 mph 84 % 0.00 in
07:11 30.7 °F 26.4 °F 30.08 in WSW 0.8 mph 2.3 mph 84 % 0.00 in
07:16 30.7 °F 26.4 °F 30.08 in WSW 2.3 mph 3.5 mph 84 % 0.00 in
07:21 30.8 °F 26.5 °F 30.08 in WSW 2.4 mph 4.0 mph 84 % 0.00 in
07:26 30.9 °F 26.3 °F 30.08 in SW 1.8 mph 5.8 mph 83 % 0.00 in
07:31 31.1 °F 26.5 °F 30.08 in SW 2.2 mph 3.5 mph 83 % 0.00 in
07:36 31.4 °F 26.8 °F 30.08 in SW 3.1 mph 5.8 mph 83 % 0.00 in
07:41 31.6 °F 27.0 °F 30.08 in SW 2.6 mph 3.5 mph 83 % 0.00 in
07:46 31.8 °F 26.9 °F 30.08 in SW 1.7 mph 3.0 mph 82 % 0.00 in
07:51 32.1 °F 27.2 °F 30.08 in SW 0.5 mph 1.2 mph 82 % 0.00 in
07:56 32.4 °F 27.5 °F 30.08 in SW 0.7 mph 2.3 mph 82 % 0.00 in
08:01 32.7 °F 27.8 °F 30.08 in SW 0.5 mph 2.3 mph 82 % 0.00 in
08:06 33.0 °F 27.8 °F 30.08 in SW 0.4 mph 2.3 mph 81 % 0.00 in
08:11 33.3 °F 28.1 °F 30.08 in Calm   1.2 mph 81 % 0.00 in
08:16 33.7 °F 28.2 °F 30.08 in SW 1.2 mph 3.5 mph 80 % 0.00 in
08:21 34.0 °F 28.5 °F 30.08 in SW 0.4 mph 3.5 mph 80 % 0.00 in
08:26 34.3 °F 28.8 °F 30.08 in WSW 1.1 mph 2.3 mph 80 % 0.00 in
08:31 34.7 °F 29.2 °F 30.08 in WSW 0.7 mph 2.3 mph 80 % 0.00 in
08:36 35.0 °F 29.5 °F 30.08 in West 0.8 mph 2.3 mph 80 % 0.00 in
08:41 35.4 °F 29.5 °F 30.07 in West 2.7 mph 4.6 mph 79 % 0.00 in
08:47 35.9 °F 30.0 °F 30.07 in West 3.9 mph 5.8 mph 79 % 0.00 in
08:52 36.5 °F 30.3 °F 30.07 in WSW 3.3 mph 8.1 mph 78 % 0.00 in
08:57 37.2 °F 30.7 °F 30.07 in West 1.0 mph 3.5 mph 77 % 0.00 in
09:02 37.9 °F 31.0 °F 30.07 in WNW 1.7 mph 4.6 mph 76 % 0.00 in
09:07 38.7 °F 31.1 °F 30.08 in WSW 0.3 mph 1.2 mph 74 % 0.00 in
09:12 39.5 °F 31.6 °F 30.08 in West 0.9 mph 2.3 mph 73 % 0.00 in
09:17 40.1 °F 31.8 °F 30.08 in West 1.7 mph 3.5 mph 72 % 0.00 in
09:22 40.8 °F 32.5 °F 30.08 in WSW 1.3 mph 4.0 mph 72 % 0.00 in
09:27 41.5 °F 32.8 °F 30.07 in Calm   1.0 mph 71 % 0.00 in
09:32 42.2 °F 32.8 °F 30.07 in Calm     69 % 0.00 in
09:37 42.8 °F 32.6 °F 30.07 in WNW 1.8 mph 2.3 mph 67 % 0.00 in
09:42 43.4 °F 32.4 °F 30.07 in WSW 1.7 mph 3.5 mph 65 % 0.00 in
09:48 44.0 °F 32.6 °F 30.07 in WSW 1.0 mph 3.5 mph 64 % 0.00 in
09:53 44.6 °F 33.2 °F 30.07 in SW 1.0 mph 2.3 mph 64 % 0.00 in
09:54 44.8 °F 33.0 °F 30.07 in West 1.1 mph 1.2 mph 63 % 0.00 in
10:00 45.2 °F 32.5 °F 30.07 in WSW 1.7 mph 3.5 mph 61 % 0.00 in
10:05 45.5 °F 32.4 °F 30.07 in WSW 0.1 mph 4.6 mph 60 % 0.00 in
10:10 45.9 °F 32.8 °F 30.06 in SW 2.2 mph 3.5 mph 60 % 0.00 in
10:15 46.3 °F 32.7 °F 30.07 in WNW 1.6 mph 4.0 mph 59 % 0.00 in
10:20 46.5 °F 32.1 °F 30.07 in WNW 2.9 mph 4.6 mph 57 % 0.00 in
10:25 46.7 °F 32.7 °F 30.07 in WNW 0.4 mph 2.3 mph 58 % 0.00 in
10:30 46.8 °F 31.9 °F 30.07 in WNW 2.4 mph 3.5 mph 56 % 0.00 in
10:35 46.9 °F 32.0 °F 30.07 in SW 1.0 mph 3.5 mph 56 % 0.00 in
10:40 47.0 °F 31.7 °F 30.07 in SW 0.1 mph 1.0 mph 55 % 0.00 in
10:45 47.1 °F 31.7 °F 30.07 in NW 3.0 mph 3.5 mph 55 % 0.00 in
10:46 47.1 °F 31.3 °F 30.07 in NW 1.3 mph 4.6 mph 54 % 0.00 in
10:51 47.0 °F 31.7 °F 30.06 in West 3.1 mph 5.0 mph 55 % 0.00 in
10:56 46.9 °F 32.0 °F 30.06 in WNW 2.2 mph 3.5 mph 56 % 0.00 in
11:01 46.8 °F 31.9 °F 30.06 in WSW 1.3 mph 4.0 mph 56 % 0.00 in
11:06 46.5 °F 31.2 °F 30.06 in West 3.4 mph 6.0 mph 55 % 0.00 in
11:11 46.3 °F 31.9 °F 30.06 in NW 0.9 mph 3.0 mph 57 % 0.01 in
11:16 46.1 °F 31.7 °F 30.06 in WNW 2.6 mph 4.0 mph 57 % 0.01 in
11:21 46.0 °F 31.2 °F 30.06 in WNW 3.8 mph 5.8 mph 56 % 0.01 in
11:26 45.8 °F 30.5 °F 30.05 in WNW 4.0 mph 4.6 mph 55 % 0.01 in
11:31 45.7 °F 30.9 °F 30.05 in West 4.1 mph 5.8 mph 56 % 0.01 in
11:36 45.5 °F 30.7 °F 30.05 in WNW 2.0 mph 3.5 mph 56 % 0.01 in
11:41 45.5 °F 31.1 °F 30.04 in WNW 2.7 mph 6.9 mph 57 % 0.01 in
11:47 45.4 °F 30.6 °F 30.04 in SW 1.2 mph 3.5 mph 56 % 0.01 in
11:52 45.5 °F 32.4 °F 30.04 in NW 0.9 mph 4.6 mph 60 % 0.01 in
11:57 45.5 °F 31.6 °F 30.04 in NW 1.1 mph 4.0 mph 58 % 0.01 in
12:02 45.6 °F 32.9 °F 30.04 in WNW 3.0 mph 5.8 mph 61 % 0.01 in
12:07 45.8 °F 33.5 °F 30.04 in WNW 2.8 mph 6.9 mph 62 % 0.01 in
12:12 45.8 °F 33.5 °F 30.04 in NW 2.0 mph 6.0 mph 62 % 0.00 in
12:17 46.0 °F 34.1 °F 30.04 in North 3.1 mph 4.6 mph 63 % 0.00 in
12:22 46.1 °F 34.2 °F 30.04 in NW 2.5 mph 4.6 mph 63 % 0.00 in
12:27 46.1 °F 34.2 °F 30.04 in NW 4.1 mph 6.9 mph 63 % 0.00 in
12:32 46.2 °F 34.7 °F 30.03 in North 2.7 mph 4.0 mph 64 % 0.00 in
12:37 46.2 °F 34.7 °F 30.03 in NNW 2.5 mph 6.0 mph 64 % 0.00 in
12:42 46.3 °F 34.8 °F 30.04 in North 3.4 mph 5.0 mph 64 % 0.00 in
12:47 46.4 °F 35.3 °F 30.03 in NW 2.0 mph 4.6 mph 65 % 0.00 in
12:52 46.4 °F 34.9 °F 30.03 in North 2.0 mph 3.5 mph 64 % 0.00 in
12:57 46.5 °F 35.0 °F 30.03 in NW 1.2 mph 3.5 mph 64 % 0.00 in
13:02 46.6 °F 35.1 °F 30.02 in NNW 2.6 mph 3.5 mph 64 % 0.00 in
13:07 46.8 °F 34.5 °F 30.02 in NNW 2.3 mph 5.8 mph 62 % 0.00 in
13:12 46.9 °F 34.6 °F 30.02 in NNW 2.9 mph 3.5 mph 62 % 0.00 in
13:17 47.1 °F 34.7 °F 30.02 in North 2.1 mph 6.0 mph 62 % 0.00 in
13:23 47.4 °F 34.6 °F 30.02 in NW 2.5 mph 4.0 mph 61 % 0.00 in
13:28 47.6 °F 34.8 °F 30.02 in WNW 1.8 mph 3.5 mph 61 % 0.00 in
13:33 47.9 °F 35.5 °F 30.02 in WNW 2.0 mph 4.6 mph 62 % 0.00 in
13:38 48.2 °F 35.0 °F 30.01 in NW 2.8 mph 4.6 mph 60 % 0.00 in
13:44 48.5 °F 34.8 °F 30.01 in NW 1.4 mph 5.8 mph 59 % 0.00 in
13:49 48.7 °F 35.0 °F 30.01 in NW 2.9 mph 4.6 mph 59 % 0.00 in
13:54 48.9 °F 34.8 °F 30.00 in NW 0.7 mph 3.5 mph 58 % 0.00 in
13:59 49.0 °F 34.4 °F 30.00 in NNW 2.0 mph 3.5 mph 57 % 0.00 in
14:04 49.0 °F 34.9 °F 30.00 in WNW 1.7 mph 3.5 mph 58 % 0.00 in
14:09 49.0 °F 34.9 °F 30.00 in NNE 2.3 mph 4.0 mph 58 % 0.00 in
14:10 49.0 °F 34.9 °F 30.00 in NNE 2.3 mph 3.5 mph 58 % 0.00 in
14:15 48.8 °F 34.7 °F 30.00 in NNE 2.1 mph 3.5 mph 58 % 0.00 in
14:20 48.5 °F 33.9 °F 30.00 in ENE 1.7 mph 3.5 mph 57 % 0.00 in
14:25 48.4 °F 33.9 °F 30.00 in ENE 0.2 mph 2.3 mph 57 % 0.00 in
14:30 48.3 °F 33.8 °F 29.99 in Calm     57 % 0.00 in
14:35 48.2 °F 34.1 °F 29.99 in ENE 1.2 mph 2.3 mph 58 % 0.00 in
14:40 48.0 °F 33.9 °F 29.99 in ENE 0.7 mph 2.3 mph 58 % 0.00 in
14:45 47.9 °F 34.3 °F 29.99 in ENE 0.1 mph 1.2 mph 59 % 0.00 in
14:50 47.8 °F 33.7 °F 29.99 in ENE 0.6 mph 2.3 mph 58 % 0.00 in
14:55 47.8 °F 34.6 °F 29.99 in NE 0.2 mph 2.3 mph 60 % 0.00 in
15:00 47.6 °F 34.0 °F 29.98 in NE 1.3 mph 2.3 mph 59 % 0.00 in
15:05 47.5 °F 34.3 °F 29.98 in NE 0.7 mph 2.0 mph 60 % 0.00 in
15:10 47.4 °F 34.6 °F 29.98 in NE 0.4 mph 2.3 mph 61 % 0.00 in
15:15 47.3 °F 34.5 °F 29.98 in NE 0.3 mph 2.3 mph 61 % 0.00 in
15:20 47.2 °F 34.4 °F 29.98 in Calm   1.2 mph 61 % 0.00 in
15:25 47.2 °F 34.8 °F 29.98 in Calm   2.3 mph 62 % 0.00 in
15:30 47.1 °F 34.7 °F 29.98 in Calm     62 % 0.00 in
15:35 47.0 °F 34.2 °F 29.98 in Calm     61 % 0.00 in
15:40 46.9 °F 34.1 °F 29.98 in SSE 0.7 mph 2.3 mph 61 % 0.00 in
15:45 46.9 °F 32.9 °F 29.98 in Calm     58 % 0.00 in
15:50 46.8 °F 32.4 °F 29.98 in Calm     57 % 0.00 in
15:55 46.8 °F 31.9 °F 29.98 in SSE 0.5 mph 3.5 mph 56 % 0.00 in
16:00 46.7 °F 31.8 °F 29.98 in SW 0.3 mph 2.3 mph 56 % 0.00 in
16:05 46.7 °F 31.8 °F 29.99 in SW 0.5 mph 2.3 mph 56 % 0.00 in
16:10 46.6 °F 31.7 °F 29.99 in Calm   1.2 mph 56 % 0.00 in
16:15 46.5 °F 31.2 °F 29.99 in Calm     55 % 0.00 in
16:20 46.4 °F 31.1 °F 29.99 in Calm     55 % 0.00 in
16:25 46.3 °F 31.0 °F 29.99 in SSW 1.1 mph 2.3 mph 55 % 0.00 in
16:30 46.1 °F 30.8 °F 29.99 in Calm   1.2 mph 55 % 0.00 in
16:35 46.0 °F 31.2 °F 29.99 in Calm     56 % 0.00 in
16:40 45.8 °F 31.4 °F 29.98 in SSW 1.3 mph 2.3 mph 57 % 0.00 in
16:45 45.7 °F 31.3 °F 29.99 in SSW 0.9 mph 2.0 mph 57 % 0.00 in
16:50 45.5 °F 31.1 °F 29.99 in SSW 0.5 mph 1.0 mph 57 % 0.00 in
16:55 45.4 °F 31.5 °F 29.99 in SSW 1.7 mph 2.3 mph 58 % 0.00 in
17:01 45.2 °F 31.7 °F 29.99 in SSW 1.7 mph 3.0 mph 59 % 0.00 in
17:06 45.0 °F 31.5 °F 29.99 in SSW 1.4 mph 2.3 mph 59 % 0.00 in
17:11 44.7 °F 31.7 °F 29.99 in SSW 2.6 mph 3.5 mph 60 % 0.00 in
17:16 44.5 °F 31.9 °F 29.99 in SSW 0.8 mph 3.5 mph 61 % 0.00 in
17:21 44.3 °F 31.7 °F 29.99 in SSW 2.0 mph 2.3 mph 61 % 0.00 in
17:26 44.1 °F 31.9 °F 30.00 in South 1.6 mph 3.5 mph 62 % 0.00 in
17:31 43.9 °F 32.1 °F 30.00 in SSW 1.0 mph 3.0 mph 63 % 0.00 in
17:36 43.7 °F 31.9 °F 30.00 in SSW 1.0 mph 4.0 mph 63 % 0.00 in
17:41 43.6 °F 31.8 °F 30.00 in SSW 1.0 mph 3.0 mph 63 % 0.00 in
17:46 43.4 °F 32.0 °F 30.00 in SSW 1.0 mph 3.0 mph 64 % 0.00 in
17:51 43.3 °F 32.3 °F 30.00 in SSW 0.4 mph   65 % 0.00 in
17:56 43.1 °F 32.1 °F 30.00 in SSW 0.3 mph 2.3 mph 65 % 0.00 in
18:01 43.0 °F 32.0 °F 30.00 in Calm     65 % 0.00 in
18:06 42.8 °F 32.2 °F 30.00 in Calm   1.2 mph 66 % 0.00 in
18:10 42.7 °F 32.1 °F 30.00 in Calm     66 % 0.00 in
18:16 42.5 °F 31.9 °F 30.00 in Calm     66 % 0.00 in
18:21 42.4 °F 32.2 °F 30.00 in Calm     67 % 0.00 in
18:26 42.2 °F 32.0 °F 30.00 in Calm     67 % 0.00 in
18:31 42.1 °F 32.3 °F 30.00 in Calm     68 % 0.00 in
18:36 41.9 °F 32.1 °F 30.00 in Calm     68 % 0.00 in
18:41 41.6 °F 32.2 °F 30.00 in Calm     69 % 0.00 in
18:46 41.4 °F 32.3 °F 30.00 in Calm     70 % 0.00 in
18:51 41.2 °F 32.1 °F 30.00 in Calm     70 % 0.00 in
18:56 40.9 °F 31.9 °F 30.00 in Calm     70 % 0.00 in
19:01 40.7 °F 32.0 °F 30.00 in Calm     71 % 0.00 in
19:06 40.4 °F 32.1 °F 30.00 in SSW 0.1 mph   72 % 0.00 in
19:11 40.1 °F 32.1 °F 30.00 in Calm     73 % 0.00 in
19:16 39.9 °F 32.3 °F 30.00 in Calm     74 % 0.00 in
19:21 39.7 °F 32.1 °F 30.00 in Calm     74 % 0.00 in
19:26 39.5 °F 31.9 °F 30.00 in Calm     74 % 0.00 in
19:36 39.1 °F 31.8 °F 29.99 in Calm     75 % 0.00 in
19:41 38.8 °F 31.9 °F 29.99 in Calm     76 % 0.00 in
19:46 38.7 °F 31.8 °F 29.99 in Calm     76 % 0.00 in
19:56 38.3 °F 31.7 °F 30.00 in Calm     77 % 0.00 in
20:01 38.2 °F 31.6 °F 30.00 in Calm     77 % 0.00 in
20:06 38.0 °F 31.7 °F 30.00 in Calm     78 % 0.00 in
20:11 37.8 °F 31.6 °F 30.00 in Calm     78 % 0.00 in
20:16 37.8 °F 31.6 °F 29.99 in Calm     78 % 0.00 in
20:21 37.7 °F 31.8 °F 29.99 in Calm     79 % 0.00 in
20:26 37.6 °F 31.7 °F 29.99 in Calm     79 % 0.00 in
20:31 37.5 °F 32.2 °F 30.00 in SSW 0.8 mph 2.3 mph 81 % 0.00 in
20:46 37.4 °F 32.4 °F 29.99 in Calm     82 % 0.00 in
20:51 37.3 °F 32.3 °F 29.99 in Calm     82 % 0.00 in
20:56 37.3 °F 32.3 °F 29.99 in Calm     82 % 0.00 in
21:01 37.2 °F 32.2 °F 29.99 in Calm     82 % 0.00 in
21:06 37.1 °F 32.1 °F 29.99 in Calm     82 % 0.00 in
21:11 37.1 °F 32.1 °F 29.99 in Calm     82 % 0.00 in
21:16 37.0 °F 32.0 °F 29.99 in Calm     82 % 0.00 in
21:21 36.9 °F 31.9 °F 29.99 in Calm     82 % 0.00 in
21:26 36.9 °F 32.2 °F 29.99 in SSW 0.2 mph 1.0 mph 83 % 0.00 in
21:31 36.8 °F 32.4 °F 29.99 in Calm   1.2 mph 84 % 0.00 in
21:36 36.8 °F 32.7 °F 29.98 in Calm   1.2 mph 85 % 0.00 in
21:41 36.9 °F 33.1 °F 29.98 in Calm     86 % 0.00 in
21:46 37.0 °F 33.5 °F 29.98 in WSW 0.1 mph 1.2 mph 87 % 0.00 in
21:51 37.2 °F 34.0 °F 29.98 in SW 1.8 mph 2.3 mph 88 % 0.00 in
21:56 37.5 °F 34.6 °F 29.98 in SW 1.2 mph 2.3 mph 89 % 0.00 in
22:01 37.8 °F 34.8 °F 29.97 in SW 0.3 mph 2.3 mph 89 % 0.00 in
22:06 38.1 °F 35.1 °F 29.98 in Calm   1.0 mph 89 % 0.00 in
22:12 38.3 °F 35.3 °F 29.98 in SW 1.2 mph 3.5 mph 89 % 0.00 in
22:17 38.5 °F 35.5 °F 29.97 in SW 1.1 mph 5.0 mph 89 % 0.00 in
22:22 38.8 °F 35.8 °F 29.97 in SW 1.5 mph 2.3 mph 89 % 0.00 in
22:25 38.9 °F 35.9 °F 29.97 in SW 3.1 mph 7.0 mph 89 % 0.00 in
22:26 39.0 °F 36.0 °F 29.97 in SW 2.2 mph 8.1 mph 89 % 0.00 in
22:27 39.1 °F 36.1 °F 29.97 in SW 3.0 mph 5.0 mph 89 % 0.00 in
22:32 39.4 °F 36.4 °F 29.97 in SW 2.2 mph 4.0 mph 89 % 0.00 in
22:37 39.6 °F 36.6 °F 29.97 in SW 1.2 mph 2.3 mph 89 % 0.00 in
22:38 39.6 °F 36.6 °F 29.97 in SW 1.4 mph 4.0 mph 89 % 0.00 in
22:43 39.8 °F 36.5 °F 29.97 in SW 0.6 mph 3.5 mph 88 % 0.00 in
22:48 40.0 °F 36.7 °F 29.97 in SW 0.2 mph 2.3 mph 88 % 0.00 in
22:53 40.3 °F 36.7 °F 29.96 in SSW 1.5 mph 2.3 mph 87 % 0.00 in
22:58 40.4 °F 36.5 °F 29.96 in SW 2.1 mph 3.5 mph 86 % 0.00 in
23:03 40.6 °F 36.7 °F 29.96 in WSW 1.8 mph 6.0 mph 86 % 0.00 in
23:08 40.8 °F 36.6 °F 29.96 in WSW 0.8 mph 3.5 mph 85 % 0.00 in
23:13 40.9 °F 36.4 °F 29.96 in WSW 3.0 mph 4.6 mph 84 % 0.00 in
23:18 41.0 °F 36.5 °F 29.96 in WSW 1.6 mph 3.5 mph 84 % 0.00 in
23:23 41.1 °F 36.3 °F 29.96 in SW 1.0 mph 2.3 mph 83 % 0.00 in
23:28 41.3 °F 36.5 °F 29.96 in SSW 2.2 mph 5.8 mph 83 % 0.00 in
23:33 41.3 °F 36.2 °F 29.95 in SW 1.2 mph 2.3 mph 82 % 0.00 in
23:38 41.3 °F 36.2 °F 29.95 in SW 0.5 mph 2.3 mph 82 % 0.00 in
23:43 41.3 °F 35.9 °F 29.95 in WSW 0.7 mph 3.5 mph 81 % 0.00 in
23:48 41.3 °F 35.9 °F 29.95 in WSW 1.2 mph 4.6 mph 81 % 0.00 in
23:53 41.3 °F 35.3 °F 29.95 in WSW 1.8 mph 4.6 mph 79 % 0.00 in
23:58 41.3 °F 35.3 °F 29.95 in SW 0.3 mph 2.3 mph 79 % 0.00 in
Crab Meadow Weather
Compliments of Weather Underground - 2.75 mb

Script developed by  Jim McMurry - jmcmurry@mwt.net Adapted for the template by  Wim van der Kuil - Leuven-Template.eu

Heat Index: The heat index combines air temperature and dew point in an attempt to determine the human-perceived equivalent temperature - how hot it feels. The human body normally cools itself by sweating, which evaporates and carries heat away from the body. However, when the relative humidity is high the evaporation rate is reduced, so heat is removed from the body at a lower rate causing it to retain more heat than it would in dry air.